sensor_id;sensor_type;location;lat;lon;timestamp;P1;durP1;ratioP1;P2;durP2;ratioP2
4810;SDS011;2419;51.276;6.472;2023-11-19T00:00:27;2.70;;;2.50;;
4810;SDS011;2419;51.276;6.472;2023-11-19T00:02:55;2.87;;;2.63;;
4810;SDS011;2419;51.276;6.472;2023-11-19T00:05:23;3.40;;;2.60;;
4810;SDS011;2419;51.276;6.472;2023-11-19T00:07:53;4.33;;;2.50;;
4810;SDS011;2419;51.276;6.472;2023-11-19T00:10:21;3.60;;;2.73;;
4810;SDS011;2419;51.276;6.472;2023-11-19T00:12:49;5.17;;;3.80;;
4810;SDS011;2419;51.276;6.472;2023-11-19T00:15:17;3.07;;;2.77;;
4810;SDS011;2419;51.276;6.472;2023-11-19T00:17:46;3.77;;;3.23;;
4810;SDS011;2419;51.276;6.472;2023-11-19T00:20:16;4.67;;;3.90;;
4810;SDS011;2419;51.276;6.472;2023-11-19T00:22:45;3.33;;;3.03;;
4810;SDS011;2419;51.276;6.472;2023-11-19T00:25:17;4.30;;;3.40;;
4810;SDS011;2419;51.276;6.472;2023-11-19T00:27:45;3.50;;;2.87;;
4810;SDS011;2419;51.276;6.472;2023-11-19T00:30:14;4.37;;;2.67;;
4810;SDS011;2419;51.276;6.472;2023-11-19T00:32:43;4.53;;;3.60;;
4810;SDS011;2419;51.276;6.472;2023-11-19T00:35:11;4.40;;;3.03;;
4810;SDS011;2419;51.276;6.472;2023-11-19T00:37:41;4.90;;;2.80;;
4810;SDS011;2419;51.276;6.472;2023-11-19T00:40:12;5.50;;;3.60;;
4810;SDS011;2419;51.276;6.472;2023-11-19T00:42:44;3.17;;;2.87;;
4810;SDS011;2419;51.276;6.472;2023-11-19T00:45:12;3.00;;;2.80;;
4810;SDS011;2419;51.276;6.472;2023-11-19T00:47:40;4.03;;;3.40;;
4810;SDS011;2419;51.276;6.472;2023-11-19T00:50:09;3.93;;;2.93;;
4810;SDS011;2419;51.276;6.472;2023-11-19T00:52:38;3.77;;;2.53;;
4810;SDS011;2419;51.276;6.472;2023-11-19T00:55:07;4.00;;;2.40;;
4810;SDS011;2419;51.276;6.472;2023-11-19T00:57:35;3.33;;;2.73;;
4810;SDS011;2419;51.276;6.472;2023-11-19T01:00:05;6.23;;;2.10;;
4810;SDS011;2419;51.276;6.472;2023-11-19T01:02:45;2.57;;;2.37;;
4810;SDS011;2419;51.276;6.472;2023-11-19T01:05:16;2.67;;;2.03;;
4810;SDS011;2419;51.276;6.472;2023-11-19T01:07:48;3.17;;;2.60;;
4810;SDS011;2419;51.276;6.472;2023-11-19T01:10:16;2.10;;;1.90;;
4810;SDS011;2419;51.276;6.472;2023-11-19T01:12:45;3.47;;;2.20;;
4810;SDS011;2419;51.276;6.472;2023-11-19T01:15:14;3.67;;;2.50;;
4810;SDS011;2419;51.276;6.472;2023-11-19T01:17:45;3.53;;;2.70;;
4810;SDS011;2419;51.276;6.472;2023-11-19T01:20:15;2.07;;;1.80;;
4810;SDS011;2419;51.276;6.472;2023-11-19T01:22:44;4.30;;;2.27;;
4810;SDS011;2419;51.276;6.472;2023-11-19T01:25:12;2.40;;;2.20;;
4810;SDS011;2419;51.276;6.472;2023-11-19T01:27:40;2.20;;;2.00;;
4810;SDS011;2419;51.276;6.472;2023-11-19T01:30:09;2.30;;;1.97;;
4810;SDS011;2419;51.276;6.472;2023-11-19T01:32:41;3.57;;;2.30;;
4810;SDS011;2419;51.276;6.472;2023-11-19T01:35:09;3.77;;;2.33;;
4810;SDS011;2419;51.276;6.472;2023-11-19T01:37:37;5.80;;;2.23;;
4810;SDS011;2419;51.276;6.472;2023-11-19T01:40:05;9.33;;;2.53;;
4810;SDS011;2419;51.276;6.472;2023-11-19T01:42:37;6.97;;;2.50;;
4810;SDS011;2419;51.276;6.472;2023-11-19T01:45:06;4.00;;;2.53;;
4810;SDS011;2419;51.276;6.472;2023-11-19T01:47:36;3.73;;;2.37;;
4810;SDS011;2419;51.276;6.472;2023-11-19T01:50:07;10.73;;;2.47;;
4810;SDS011;2419;51.276;6.472;2023-11-19T01:52:36;2.23;;;2.03;;
4810;SDS011;2419;51.276;6.472;2023-11-19T01:55:05;8.80;;;2.47;;
4810;SDS011;2419;51.276;6.472;2023-11-19T01:57:35;6.73;;;2.10;;
4810;SDS011;2419;51.276;6.472;2023-11-19T02:00:07;2.13;;;1.90;;
4810;SDS011;2419;51.276;6.472;2023-11-19T02:02:42;4.53;;;2.23;;
4810;SDS011;2419;51.276;6.472;2023-11-19T02:05:14;4.93;;;2.40;;
4810;SDS011;2419;51.276;6.472;2023-11-19T02:07:42;8.93;;;2.63;;
4810;SDS011;2419;51.276;6.472;2023-11-19T02:10:12;22.00;;;2.77;;
4810;SDS011;2419;51.276;6.472;2023-11-19T02:12:43;3.93;;;2.40;;
4810;SDS011;2419;51.276;6.472;2023-11-19T02:15:11;4.23;;;2.30;;
4810;SDS011;2419;51.276;6.472;2023-11-19T02:17:39;2.50;;;1.60;;
4810;SDS011;2419;51.276;6.472;2023-11-19T02:20:08;1.70;;;1.60;;
4810;SDS011;2419;51.276;6.472;2023-11-19T02:22:40;4.03;;;2.20;;
4810;SDS011;2419;51.276;6.472;2023-11-19T02:25:20;5.73;;;2.20;;
4810;SDS011;2419;51.276;6.472;2023-11-19T02:27:55;14.17;;;2.73;;
4810;SDS011;2419;51.276;6.472;2023-11-19T02:30:25;6.70;;;2.27;;
4810;SDS011;2419;51.276;6.472;2023-11-19T02:32:55;8.93;;;2.67;;
4810;SDS011;2419;51.276;6.472;2023-11-19T02:35:25;6.13;;;1.87;;
4810;SDS011;2419;51.276;6.472;2023-11-19T02:37:54;8.43;;;3.23;;
4810;SDS011;2419;51.276;6.472;2023-11-19T02:40:23;10.33;;;3.27;;
4810;SDS011;2419;51.276;6.472;2023-11-19T02:42:51;9.93;;;2.90;;
4810;SDS011;2419;51.276;6.472;2023-11-19T02:45:22;6.80;;;2.80;;
4810;SDS011;2419;51.276;6.472;2023-11-19T02:47:50;7.83;;;3.40;;
4810;SDS011;2419;51.276;6.472;2023-11-19T02:50:19;12.73;;;2.90;;
4810;SDS011;2419;51.276;6.472;2023-11-19T02:52:52;9.43;;;3.00;;
4810;SDS011;2419;51.276;6.472;2023-11-19T02:55:23;12.03;;;3.03;;
4810;SDS011;2419;51.276;6.472;2023-11-19T02:57:54;6.13;;;2.37;;
4810;SDS011;2419;51.276;6.472;2023-11-19T03:00:26;9.93;;;2.87;;
4810;SDS011;2419;51.276;6.472;2023-11-19T03:03:02;10.33;;;2.80;;
4810;SDS011;2419;51.276;6.472;2023-11-19T03:05:43;13.00;;;2.70;;
4810;SDS011;2419;51.276;6.472;2023-11-19T03:08:13;10.73;;;2.37;;
4810;SDS011;2419;51.276;6.472;2023-11-19T03:10:44;9.43;;;2.40;;
4810;SDS011;2419;51.276;6.472;2023-11-19T03:13:13;10.90;;;2.43;;
4810;SDS011;2419;51.276;6.472;2023-11-19T03:15:43;8.37;;;3.20;;
4810;SDS011;2419;51.276;6.472;2023-11-19T03:18:11;4.93;;;2.40;;
4810;SDS011;2419;51.276;6.472;2023-11-19T03:20:39;8.70;;;2.70;;
4810;SDS011;2419;51.276;6.472;2023-11-19T03:23:07;11.33;;;2.93;;
4810;SDS011;2419;51.276;6.472;2023-11-19T03:25:35;15.93;;;3.23;;
4810;SDS011;2419;51.276;6.472;2023-11-19T03:28:03;18.03;;;2.73;;
4810;SDS011;2419;51.276;6.472;2023-11-19T03:30:32;12.83;;;3.50;;
4810;SDS011;2419;51.276;6.472;2023-11-19T03:33:02;8.93;;;2.73;;
4810;SDS011;2419;51.276;6.472;2023-11-19T03:35:31;8.70;;;2.40;;
4810;SDS011;2419;51.276;6.472;2023-11-19T03:37:59;8.50;;;2.50;;
4810;SDS011;2419;51.276;6.472;2023-11-19T03:40:27;9.17;;;3.27;;
4810;SDS011;2419;51.276;6.472;2023-11-19T03:42:56;15.37;;;3.23;;
4810;SDS011;2419;51.276;6.472;2023-11-19T03:45:24;11.17;;;2.90;;
4810;SDS011;2419;51.276;6.472;2023-11-19T03:47:52;12.10;;;3.10;;
4810;SDS011;2419;51.276;6.472;2023-11-19T03:50:22;16.67;;;3.20;;
4810;SDS011;2419;51.276;6.472;2023-11-19T03:52:50;9.87;;;2.30;;
4810;SDS011;2419;51.276;6.472;2023-11-19T03:55:19;26.67;;;4.53;;
4810;SDS011;2419;51.276;6.472;2023-11-19T03:57:47;19.27;;;2.73;;
4810;SDS011;2419;51.276;6.472;2023-11-19T04:00:16;9.50;;;2.97;;
4810;SDS011;2419;51.276;6.472;2023-11-19T04:02:44;10.90;;;3.07;;
4810;SDS011;2419;51.276;6.472;2023-11-19T04:05:13;12.50;;;3.00;;
4810;SDS011;2419;51.276;6.472;2023-11-19T04:07:43;15.23;;;3.50;;
4810;SDS011;2419;51.276;6.472;2023-11-19T04:10:11;13.17;;;2.33;;
4810;SDS011;2419;51.276;6.472;2023-11-19T04:12:39;18.83;;;2.93;;
4810;SDS011;2419;51.276;6.472;2023-11-19T04:15:07;10.70;;;2.80;;
4810;SDS011;2419;51.276;6.472;2023-11-19T04:17:35;25.27;;;4.20;;
4810;SDS011;2419;51.276;6.472;2023-11-19T04:20:04;10.23;;;2.70;;
4810;SDS011;2419;51.276;6.472;2023-11-19T04:22:37;13.87;;;3.30;;
4810;SDS011;2419;51.276;6.472;2023-11-19T04:25:07;22.37;;;2.97;;
4810;SDS011;2419;51.276;6.472;2023-11-19T04:27:35;6.57;;;2.43;;
4810;SDS011;2419;51.276;6.472;2023-11-19T04:30:04;15.70;;;2.40;;
4810;SDS011;2419;51.276;6.472;2023-11-19T04:32:36;11.97;;;3.10;;
4810;SDS011;2419;51.276;6.472;2023-11-19T04:35:05;15.30;;;3.03;;
4810;SDS011;2419;51.276;6.472;2023-11-19T04:37:34;16.07;;;3.10;;
4810;SDS011;2419;51.276;6.472;2023-11-19T04:40:02;11.63;;;2.60;;
4810;SDS011;2419;51.276;6.472;2023-11-19T04:42:32;9.00;;;1.87;;
4810;SDS011;2419;51.276;6.472;2023-11-19T04:45:00;15.00;;;3.10;;
4810;SDS011;2419;51.276;6.472;2023-11-19T04:47:28;15.07;;;3.00;;
4810;SDS011;2419;51.276;6.472;2023-11-19T04:49:57;18.07;;;3.60;;
4810;SDS011;2419;51.276;6.472;2023-11-19T04:52:25;8.07;;;2.60;;
4810;SDS011;2419;51.276;6.472;2023-11-19T04:54:53;16.53;;;3.60;;
4810;SDS011;2419;51.276;6.472;2023-11-19T04:57:21;16.17;;;3.07;;
4810;SDS011;2419;51.276;6.472;2023-11-19T04:59:50;23.63;;;4.00;;
4810;SDS011;2419;51.276;6.472;2023-11-19T05:02:18;21.13;;;3.00;;
4810;SDS011;2419;51.276;6.472;2023-11-19T05:04:46;10.60;;;2.83;;
4810;SDS011;2419;51.276;6.472;2023-11-19T05:07:15;12.37;;;3.00;;
4810;SDS011;2419;51.276;6.472;2023-11-19T05:09:43;20.37;;;3.13;;
4810;SDS011;2419;51.276;6.472;2023-11-19T05:12:11;20.30;;;4.53;;
4810;SDS011;2419;51.276;6.472;2023-11-19T05:14:40;15.77;;;3.10;;
4810;SDS011;2419;51.276;6.472;2023-11-19T05:17:15;15.03;;;3.57;;
4810;SDS011;2419;51.276;6.472;2023-11-19T05:19:45;11.33;;;2.87;;
4810;SDS011;2419;51.276;6.472;2023-11-19T05:22:14;22.83;;;3.53;;
4810;SDS011;2419;51.276;6.472;2023-11-19T05:24:42;18.00;;;4.07;;
4810;SDS011;2419;51.276;6.472;2023-11-19T05:27:10;7.70;;;2.60;;
4810;SDS011;2419;51.276;6.472;2023-11-19T05:29:39;11.70;;;2.70;;
4810;SDS011;2419;51.276;6.472;2023-11-19T05:32:09;23.87;;;3.77;;
4810;SDS011;2419;51.276;6.472;2023-11-19T05:34:39;18.80;;;2.90;;
4810;SDS011;2419;51.276;6.472;2023-11-19T05:37:10;19.27;;;3.10;;
4810;SDS011;2419;51.276;6.472;2023-11-19T05:39:38;13.13;;;2.80;;
4810;SDS011;2419;51.276;6.472;2023-11-19T05:42:06;21.20;;;2.87;;
4810;SDS011;2419;51.276;6.472;2023-11-19T05:44:34;21.60;;;3.63;;
4810;SDS011;2419;51.276;6.472;2023-11-19T05:47:06;11.90;;;3.30;;
4810;SDS011;2419;51.276;6.472;2023-11-19T05:49:34;11.70;;;2.50;;
4810;SDS011;2419;51.276;6.472;2023-11-19T05:52:04;24.80;;;2.87;;
4810;SDS011;2419;51.276;6.472;2023-11-19T05:54:34;18.10;;;2.83;;
4810;SDS011;2419;51.276;6.472;2023-11-19T05:57:04;15.07;;;2.90;;
4810;SDS011;2419;51.276;6.472;2023-11-19T05:59:32;27.40;;;4.10;;
4810;SDS011;2419;51.276;6.472;2023-11-19T06:02:02;11.00;;;2.77;;
4810;SDS011;2419;51.276;6.472;2023-11-19T06:04:30;14.30;;;3.10;;
4810;SDS011;2419;51.276;6.472;2023-11-19T06:06:58;18.13;;;3.30;;
4810;SDS011;2419;51.276;6.472;2023-11-19T06:09:28;13.90;;;2.90;;
4810;SDS011;2419;51.276;6.472;2023-11-19T06:11:56;14.07;;;2.40;;
4810;SDS011;2419;51.276;6.472;2023-11-19T06:14:24;21.93;;;3.23;;
4810;SDS011;2419;51.276;6.472;2023-11-19T06:16:52;18.97;;;2.50;;
4810;SDS011;2419;51.276;6.472;2023-11-19T06:19:20;21.87;;;3.73;;
4810;SDS011;2419;51.276;6.472;2023-11-19T06:21:53;14.00;;;2.27;;
4810;SDS011;2419;51.276;6.472;2023-11-19T06:24:21;25.97;;;3.20;;
4810;SDS011;2419;51.276;6.472;2023-11-19T06:26:51;13.90;;;2.90;;
4810;SDS011;2419;51.276;6.472;2023-11-19T06:29:19;27.13;;;4.07;;
4810;SDS011;2419;51.276;6.472;2023-11-19T06:31:47;16.10;;;3.03;;
4810;SDS011;2419;51.276;6.472;2023-11-19T06:34:16;14.57;;;2.90;;
4810;SDS011;2419;51.276;6.472;2023-11-19T06:36:44;17.17;;;3.93;;
4810;SDS011;2419;51.276;6.472;2023-11-19T06:39:12;24.27;;;3.23;;
4810;SDS011;2419;51.276;6.472;2023-11-19T06:41:44;25.77;;;4.03;;
4810;SDS011;2419;51.276;6.472;2023-11-19T06:44:14;21.83;;;2.83;;
4810;SDS011;2419;51.276;6.472;2023-11-19T06:46:42;16.17;;;2.73;;
4810;SDS011;2419;51.276;6.472;2023-11-19T06:49:10;19.77;;;3.00;;
4810;SDS011;2419;51.276;6.472;2023-11-19T06:51:41;28.27;;;3.80;;
4810;SDS011;2419;51.276;6.472;2023-11-19T06:54:10;16.23;;;3.00;;
4810;SDS011;2419;51.276;6.472;2023-11-19T06:56:38;20.03;;;3.30;;
4810;SDS011;2419;51.276;6.472;2023-11-19T06:59:06;16.30;;;2.93;;
4810;SDS011;2419;51.276;6.472;2023-11-19T07:01:36;20.17;;;3.57;;
4810;SDS011;2419;51.276;6.472;2023-11-19T07:04:04;14.03;;;2.43;;
4810;SDS011;2419;51.276;6.472;2023-11-19T07:06:35;19.80;;;2.83;;
4810;SDS011;2419;51.276;6.472;2023-11-19T07:09:04;22.87;;;3.80;;
4810;SDS011;2419;51.276;6.472;2023-11-19T07:11:36;11.73;;;2.10;;
4810;SDS011;2419;51.276;6.472;2023-11-19T07:14:05;15.70;;;2.97;;
4810;SDS011;2419;51.276;6.472;2023-11-19T07:16:34;21.93;;;4.80;;
4810;SDS011;2419;51.276;6.472;2023-11-19T07:19:04;14.80;;;3.43;;
4810;SDS011;2419;51.276;6.472;2023-11-19T07:21:33;28.30;;;3.53;;
4810;SDS011;2419;51.276;6.472;2023-11-19T07:24:02;13.60;;;2.67;;
4810;SDS011;2419;51.276;6.472;2023-11-19T07:26:30;23.80;;;3.70;;
4810;SDS011;2419;51.276;6.472;2023-11-19T07:28:59;18.40;;;2.63;;
4810;SDS011;2419;51.276;6.472;2023-11-19T07:31:28;22.63;;;3.17;;
4810;SDS011;2419;51.276;6.472;2023-11-19T07:33:57;18.93;;;3.10;;
4810;SDS011;2419;51.276;6.472;2023-11-19T07:36:25;19.37;;;3.57;;
4810;SDS011;2419;51.276;6.472;2023-11-19T07:38:53;17.87;;;3.30;;
4810;SDS011;2419;51.276;6.472;2023-11-19T07:41:23;22.90;;;3.77;;
4810;SDS011;2419;51.276;6.472;2023-11-19T07:43:52;19.03;;;3.60;;
4810;SDS011;2419;51.276;6.472;2023-11-19T07:46:20;16.50;;;4.40;;
4810;SDS011;2419;51.276;6.472;2023-11-19T07:48:48;23.23;;;4.00;;
4810;SDS011;2419;51.276;6.472;2023-11-19T07:51:18;20.80;;;3.20;;
4810;SDS011;2419;51.276;6.472;2023-11-19T07:53:46;17.40;;;3.33;;
4810;SDS011;2419;51.276;6.472;2023-11-19T07:56:15;21.23;;;3.83;;
4810;SDS011;2419;51.276;6.472;2023-11-19T07:58:43;27.83;;;6.63;;
4810;SDS011;2419;51.276;6.472;2023-11-19T08:01:11;23.73;;;4.13;;
4810;SDS011;2419;51.276;6.472;2023-11-19T08:03:39;20.50;;;4.83;;
4810;SDS011;2419;51.276;6.472;2023-11-19T08:06:25;21.27;;;3.03;;
4810;SDS011;2419;51.276;6.472;2023-11-19T08:08:54;17.83;;;3.83;;
4810;SDS011;2419;51.276;6.472;2023-11-19T08:11:22;15.93;;;3.30;;
4810;SDS011;2419;51.276;6.472;2023-11-19T08:13:50;24.47;;;3.53;;
4810;SDS011;2419;51.276;6.472;2023-11-19T08:16:18;23.93;;;4.27;;
4810;SDS011;2419;51.276;6.472;2023-11-19T08:18:46;19.40;;;3.50;;
4810;SDS011;2419;51.276;6.472;2023-11-19T08:21:14;24.77;;;3.70;;
4810;SDS011;2419;51.276;6.472;2023-11-19T08:23:44;14.00;;;2.37;;
4810;SDS011;2419;51.276;6.472;2023-11-19T08:26:12;20.90;;;3.60;;
4810;SDS011;2419;51.276;6.472;2023-11-19T08:28:46;26.37;;;3.47;;
4810;SDS011;2419;51.276;6.472;2023-11-19T08:31:14;16.10;;;2.90;;
4810;SDS011;2419;51.276;6.472;2023-11-19T08:33:42;15.40;;;2.83;;
4810;SDS011;2419;51.276;6.472;2023-11-19T08:36:14;19.13;;;3.43;;
4810;SDS011;2419;51.276;6.472;2023-11-19T08:38:44;7.97;;;2.67;;
4810;SDS011;2419;51.276;6.472;2023-11-19T08:41:13;21.63;;;3.57;;
4810;SDS011;2419;51.276;6.472;2023-11-19T08:43:41;21.40;;;3.30;;
4810;SDS011;2419;51.276;6.472;2023-11-19T08:46:09;11.57;;;3.40;;
4810;SDS011;2419;51.276;6.472;2023-11-19T08:48:38;22.30;;;3.40;;
4810;SDS011;2419;51.276;6.472;2023-11-19T08:51:06;24.90;;;3.53;;
4810;SDS011;2419;51.276;6.472;2023-11-19T08:53:35;15.83;;;3.10;;
4810;SDS011;2419;51.276;6.472;2023-11-19T08:56:04;19.43;;;3.80;;
4810;SDS011;2419;51.276;6.472;2023-11-19T08:58:33;25.63;;;4.30;;
4810;SDS011;2419;51.276;6.472;2023-11-19T09:01:01;14.43;;;3.63;;
4810;SDS011;2419;51.276;6.472;2023-11-19T09:03:30;12.10;;;2.83;;
4810;SDS011;2419;51.276;6.472;2023-11-19T09:05:59;19.70;;;3.70;;
4810;SDS011;2419;51.276;6.472;2023-11-19T09:08:28;19.83;;;3.97;;
4810;SDS011;2419;51.276;6.472;2023-11-19T09:10:56;20.93;;;3.27;;
4810;SDS011;2419;51.276;6.472;2023-11-19T09:13:25;17.37;;;3.07;;
4810;SDS011;2419;51.276;6.472;2023-11-19T09:15:53;16.90;;;4.83;;
4810;SDS011;2419;51.276;6.472;2023-11-19T09:18:25;19.13;;;3.40;;
4810;SDS011;2419;51.276;6.472;2023-11-19T09:20:53;17.17;;;3.10;;
4810;SDS011;2419;51.276;6.472;2023-11-19T09:23:21;22.33;;;3.60;;
4810;SDS011;2419;51.276;6.472;2023-11-19T09:25:51;15.93;;;3.53;;
4810;SDS011;2419;51.276;6.472;2023-11-19T09:28:19;25.17;;;3.70;;
4810;SDS011;2419;51.276;6.472;2023-11-19T09:30:48;16.63;;;3.33;;
4810;SDS011;2419;51.276;6.472;2023-11-19T09:33:16;13.53;;;2.70;;
4810;SDS011;2419;51.276;6.472;2023-11-19T09:35:45;16.87;;;4.20;;
4810;SDS011;2419;51.276;6.472;2023-11-19T09:38:13;17.13;;;3.90;;
4810;SDS011;2419;51.276;6.472;2023-11-19T09:40:41;23.37;;;3.27;;
4810;SDS011;2419;51.276;6.472;2023-11-19T09:43:09;21.17;;;3.80;;
4810;SDS011;2419;51.276;6.472;2023-11-19T09:45:40;10.77;;;2.53;;
4810;SDS011;2419;51.276;6.472;2023-11-19T09:48:17;24.77;;;3.70;;
4810;SDS011;2419;51.276;6.472;2023-11-19T09:50:45;13.63;;;3.40;;
4810;SDS011;2419;51.276;6.472;2023-11-19T09:53:15;14.17;;;3.07;;
4810;SDS011;2419;51.276;6.472;2023-11-19T09:55:43;22.83;;;4.33;;
4810;SDS011;2419;51.276;6.472;2023-11-19T09:58:12;14.00;;;2.80;;
4810;SDS011;2419;51.276;6.472;2023-11-19T10:00:42;14.20;;;3.30;;
4810;SDS011;2419;51.276;6.472;2023-11-19T10:03:22;18.23;;;3.13;;
4810;SDS011;2419;51.276;6.472;2023-11-19T10:05:51;25.53;;;4.33;;
4810;SDS011;2419;51.276;6.472;2023-11-19T10:08:19;20.87;;;5.30;;
4810;SDS011;2419;51.276;6.472;2023-11-19T10:10:48;18.87;;;3.20;;
4810;SDS011;2419;51.276;6.472;2023-11-19T10:13:16;26.33;;;3.87;;
4810;SDS011;2419;51.276;6.472;2023-11-19T10:15:44;13.80;;;3.17;;
4810;SDS011;2419;51.276;6.472;2023-11-19T10:18:13;13.10;;;2.77;;
4810;SDS011;2419;51.276;6.472;2023-11-19T10:20:43;19.33;;;3.30;;
4810;SDS011;2419;51.276;6.472;2023-11-19T10:23:12;18.13;;;3.83;;
4810;SDS011;2419;51.276;6.472;2023-11-19T10:25:40;17.97;;;3.77;;
4810;SDS011;2419;51.276;6.472;2023-11-19T10:28:08;19.17;;;3.60;;
4810;SDS011;2419;51.276;6.472;2023-11-19T10:30:36;17.80;;;4.60;;
4810;SDS011;2419;51.276;6.472;2023-11-19T10:33:05;15.13;;;2.70;;
4810;SDS011;2419;51.276;6.472;2023-11-19T10:35:34;17.27;;;3.63;;
4810;SDS011;2419;51.276;6.472;2023-11-19T10:38:13;17.67;;;2.80;;
4810;SDS011;2419;51.276;6.472;2023-11-19T10:40:42;23.10;;;3.70;;
4810;SDS011;2419;51.276;6.472;2023-11-19T10:43:10;12.67;;;3.70;;
4810;SDS011;2419;51.276;6.472;2023-11-19T10:45:39;17.97;;;2.73;;
4810;SDS011;2419;51.276;6.472;2023-11-19T10:48:08;13.00;;;2.90;;
4810;SDS011;2419;51.276;6.472;2023-11-19T10:50:36;19.77;;;4.00;;
4810;SDS011;2419;51.276;6.472;2023-11-19T10:53:06;15.83;;;4.20;;
4810;SDS011;2419;51.276;6.472;2023-11-19T10:55:37;14.83;;;3.50;;
4810;SDS011;2419;51.276;6.472;2023-11-19T10:58:06;14.90;;;3.00;;
4810;SDS011;2419;51.276;6.472;2023-11-19T11:00:37;15.20;;;3.43;;
4810;SDS011;2419;51.276;6.472;2023-11-19T11:03:11;25.30;;;3.47;;
4810;SDS011;2419;51.276;6.472;2023-11-19T11:05:45;19.67;;;2.80;;
4810;SDS011;2419;51.276;6.472;2023-11-19T11:08:14;16.33;;;3.03;;
4810;SDS011;2419;51.276;6.472;2023-11-19T11:10:45;16.50;;;3.13;;
4810;SDS011;2419;51.276;6.472;2023-11-19T11:13:18;14.10;;;2.80;;
4810;SDS011;2419;51.276;6.472;2023-11-19T11:15:46;15.33;;;3.00;;
4810;SDS011;2419;51.276;6.472;2023-11-19T11:18:15;20.47;;;3.30;;
4810;SDS011;2419;51.276;6.472;2023-11-19T11:20:44;11.43;;;3.00;;
4810;SDS011;2419;51.276;6.472;2023-11-19T11:23:24;16.63;;;3.53;;
4810;SDS011;2419;51.276;6.472;2023-11-19T11:26:13;19.47;;;3.20;;
4810;SDS011;2419;51.276;6.472;2023-11-19T11:28:52;12.47;;;3.30;;
4810;SDS011;2419;51.276;6.472;2023-11-19T11:31:29;11.00;;;2.47;;
4810;SDS011;2419;51.276;6.472;2023-11-19T11:36:58;14.03;;;2.50;;
4810;SDS011;2419;51.276;6.472;2023-11-19T11:39:34;11.30;;;2.83;;
4810;SDS011;2419;51.276;6.472;2023-11-19T11:42:31;14.33;;;3.67;;
4810;SDS011;2419;51.276;6.472;2023-11-19T11:45:04;8.90;;;3.10;;
4810;SDS011;2419;51.276;6.472;2023-11-19T11:50:54;9.37;;;2.77;;
4810;SDS011;2419;51.276;6.472;2023-11-19T11:53:24;13.60;;;3.63;;
4810;SDS011;2419;51.276;6.472;2023-11-19T11:55:54;13.63;;;2.50;;
4810;SDS011;2419;51.276;6.472;2023-11-19T11:58:35;12.93;;;2.70;;
4810;SDS011;2419;51.276;6.472;2023-11-19T12:01:06;12.07;;;2.40;;
4810;SDS011;2419;51.276;6.472;2023-11-19T12:03:34;13.60;;;2.80;;
4810;SDS011;2419;51.276;6.472;2023-11-19T12:06:05;11.07;;;3.47;;
4810;SDS011;2419;51.276;6.472;2023-11-19T12:08:34;15.23;;;2.37;;
4810;SDS011;2419;51.276;6.472;2023-11-19T12:11:19;17.33;;;2.87;;
4810;SDS011;2419;51.276;6.472;2023-11-19T12:13:54;11.60;;;2.60;;
4810;SDS011;2419;51.276;6.472;2023-11-19T12:16:25;12.37;;;3.30;;
4810;SDS011;2419;51.276;6.472;2023-11-19T12:18:54;11.57;;;2.53;;
4810;SDS011;2419;51.276;6.472;2023-11-19T12:21:29;12.67;;;2.33;;
4810;SDS011;2419;51.276;6.472;2023-11-19T12:23:59;11.00;;;2.80;;
4810;SDS011;2419;51.276;6.472;2023-11-19T12:26:34;14.63;;;3.70;;
4810;SDS011;2419;51.276;6.472;2023-11-19T12:29:08;12.70;;;2.47;;
4810;SDS011;2419;51.276;6.472;2023-11-19T12:31:36;14.63;;;3.17;;
4810;SDS011;2419;51.276;6.472;2023-11-19T12:34:05;11.30;;;2.67;;
4810;SDS011;2419;51.276;6.472;2023-11-19T12:36:38;10.80;;;2.60;;
4810;SDS011;2419;51.276;6.472;2023-11-19T12:39:08;15.30;;;3.13;;
4810;SDS011;2419;51.276;6.472;2023-11-19T12:41:48;15.53;;;3.10;;
4810;SDS011;2419;51.276;6.472;2023-11-19T12:44:19;17.70;;;2.57;;
4810;SDS011;2419;51.276;6.472;2023-11-19T12:46:59;16.73;;;3.37;;
4810;SDS011;2419;51.276;6.472;2023-11-19T12:49:28;18.47;;;3.83;;
4810;SDS011;2419;51.276;6.472;2023-11-19T12:51:56;17.27;;;3.20;;
4810;SDS011;2419;51.276;6.472;2023-11-19T12:54:34;17.23;;;3.23;;
4810;SDS011;2419;51.276;6.472;2023-11-19T12:57:03;19.37;;;2.97;;
4810;SDS011;2419;51.276;6.472;2023-11-19T12:59:33;16.30;;;2.97;;
4810;SDS011;2419;51.276;6.472;2023-11-19T13:02:01;15.53;;;3.10;;
4810;SDS011;2419;51.276;6.472;2023-11-19T13:04:32;16.77;;;3.53;;
4810;SDS011;2419;51.276;6.472;2023-11-19T13:07:01;11.73;;;2.70;;
4810;SDS011;2419;51.276;6.472;2023-11-19T13:09:31;9.80;;;2.27;;
4810;SDS011;2419;51.276;6.472;2023-11-19T13:12:00;12.23;;;2.80;;
4810;SDS011;2419;51.276;6.472;2023-11-19T13:14:42;14.27;;;3.20;;
4810;SDS011;2419;51.276;6.472;2023-11-19T13:17:15;18.60;;;3.10;;
4810;SDS011;2419;51.276;6.472;2023-11-19T13:19:43;11.50;;;2.10;;
4810;SDS011;2419;51.276;6.472;2023-11-19T13:22:14;12.03;;;2.70;;
4810;SDS011;2419;51.276;6.472;2023-11-19T13:24:42;18.53;;;2.77;;
4810;SDS011;2419;51.276;6.472;2023-11-19T13:27:10;15.77;;;3.70;;
4810;SDS011;2419;51.276;6.472;2023-11-19T13:29:38;11.00;;;2.90;;
4810;SDS011;2419;51.276;6.472;2023-11-19T13:32:07;8.37;;;2.50;;
4810;SDS011;2419;51.276;6.472;2023-11-19T13:34:35;8.80;;;2.00;;
4810;SDS011;2419;51.276;6.472;2023-11-19T13:37:04;9.70;;;3.27;;
4810;SDS011;2419;51.276;6.472;2023-11-19T13:39:32;12.00;;;2.17;;
4810;SDS011;2419;51.276;6.472;2023-11-19T13:42:00;15.50;;;3.60;;
4810;SDS011;2419;51.276;6.472;2023-11-19T13:44:31;16.57;;;2.90;;
4810;SDS011;2419;51.276;6.472;2023-11-19T13:47:00;11.07;;;2.27;;
4810;SDS011;2419;51.276;6.472;2023-11-19T13:49:30;12.10;;;2.50;;
4810;SDS011;2419;51.276;6.472;2023-11-19T13:51:58;15.87;;;3.60;;
4810;SDS011;2419;51.276;6.472;2023-11-19T13:54:26;15.30;;;3.60;;
4810;SDS011;2419;51.276;6.472;2023-11-19T13:56:54;18.03;;;3.47;;
4810;SDS011;2419;51.276;6.472;2023-11-19T13:59:24;12.97;;;2.70;;
4810;SDS011;2419;51.276;6.472;2023-11-19T14:01:52;16.67;;;2.60;;
4810;SDS011;2419;51.276;6.472;2023-11-19T14:04:20;12.57;;;2.20;;
4810;SDS011;2419;51.276;6.472;2023-11-19T14:06:50;9.40;;;2.73;;
4810;SDS011;2419;51.276;6.472;2023-11-19T14:09:18;12.50;;;3.17;;
4810;SDS011;2419;51.276;6.472;2023-11-19T14:11:46;16.70;;;3.40;;
4810;SDS011;2419;51.276;6.472;2023-11-19T14:14:17;12.63;;;3.30;;
4810;SDS011;2419;51.276;6.472;2023-11-19T14:16:45;8.37;;;2.20;;
4810;SDS011;2419;51.276;6.472;2023-11-19T14:19:14;17.97;;;3.43;;
4810;SDS011;2419;51.276;6.472;2023-11-19T14:21:42;26.63;;;3.53;;
4810;SDS011;2419;51.276;6.472;2023-11-19T14:24:13;23.20;;;3.23;;
4810;SDS011;2419;51.276;6.472;2023-11-19T14:26:41;12.03;;;2.43;;
4810;SDS011;2419;51.276;6.472;2023-11-19T14:29:10;10.30;;;2.53;;
4810;SDS011;2419;51.276;6.472;2023-11-19T14:31:39;11.70;;;2.33;;
4810;SDS011;2419;51.276;6.472;2023-11-19T14:34:07;16.10;;;3.87;;
4810;SDS011;2419;51.276;6.472;2023-11-19T14:36:35;16.43;;;4.50;;
4810;SDS011;2419;51.276;6.472;2023-11-19T14:39:03;13.03;;;2.27;;
4810;SDS011;2419;51.276;6.472;2023-11-19T14:41:34;21.87;;;3.10;;
4810;SDS011;2419;51.276;6.472;2023-11-19T14:44:03;13.77;;;2.67;;
4810;SDS011;2419;51.276;6.472;2023-11-19T14:46:31;13.67;;;2.60;;
4810;SDS011;2419;51.276;6.472;2023-11-19T14:48:59;12.83;;;2.70;;
4810;SDS011;2419;51.276;6.472;2023-11-19T14:51:27;17.50;;;3.37;;
4810;SDS011;2419;51.276;6.472;2023-11-19T14:53:56;16.70;;;2.77;;
4810;SDS011;2419;51.276;6.472;2023-11-19T14:56:24;15.57;;;3.00;;
4810;SDS011;2419;51.276;6.472;2023-11-19T14:58:53;13.43;;;2.70;;
4810;SDS011;2419;51.276;6.472;2023-11-19T15:01:21;16.80;;;3.03;;
4810;SDS011;2419;51.276;6.472;2023-11-19T15:03:49;10.50;;;2.67;;
4810;SDS011;2419;51.276;6.472;2023-11-19T15:06:22;16.37;;;2.80;;
4810;SDS011;2419;51.276;6.472;2023-11-19T15:08:52;18.30;;;3.27;;
4810;SDS011;2419;51.276;6.472;2023-11-19T15:11:21;9.87;;;3.33;;
4810;SDS011;2419;51.276;6.472;2023-11-19T15:13:49;14.83;;;2.50;;
4810;SDS011;2419;51.276;6.472;2023-11-19T15:16:18;16.47;;;2.93;;
4810;SDS011;2419;51.276;6.472;2023-11-19T15:18:52;12.03;;;2.90;;
4810;SDS011;2419;51.276;6.472;2023-11-19T15:21:20;19.37;;;4.17;;
4810;SDS011;2419;51.276;6.472;2023-11-19T15:23:48;13.73;;;2.93;;
4810;SDS011;2419;51.276;6.472;2023-11-19T15:26:16;19.13;;;3.17;;